sensor_id;sensor_type;location;lat;lon;timestamp;P1;durP1;ratioP1;P2;durP2;ratioP2
1164;SDS011;571;50.930;6.926;2023-08-06T00:01:19;3.43;;;3.10;;
1164;SDS011;571;50.930;6.926;2023-08-06T00:07:46;5.53;;;3.53;;
1164;SDS011;571;50.930;6.926;2023-08-06T00:15:18;3.90;;;2.80;;
1164;SDS011;571;50.930;6.926;2023-08-06T00:17:31;4.30;;;2.63;;
1164;SDS011;571;50.930;6.926;2023-08-06T00:24:04;5.60;;;3.17;;
1164;SDS011;571;50.930;6.926;2023-08-06T00:33:23;4.97;;;3.00;;
1164;SDS011;571;50.930;6.926;2023-08-06T00:40:34;4.50;;;3.40;;
1164;SDS011;571;50.930;6.926;2023-08-06T00:45:07;3.63;;;2.60;;
1164;SDS011;571;50.930;6.926;2023-08-06T00:46:17;3.40;;;3.10;;
1164;SDS011;571;50.930;6.926;2023-08-06T00:49:17;3.80;;;3.50;;
1164;SDS011;571;50.930;6.926;2023-08-06T01:01:51;3.70;;;3.30;;
1164;SDS011;571;50.930;6.926;2023-08-06T01:04:54;4.30;;;3.37;;
1164;SDS011;571;50.930;6.926;2023-08-06T01:08:08;4.37;;;3.70;;
1164;SDS011;571;50.930;6.926;2023-08-06T01:11:18;4.50;;;4.07;;
1164;SDS011;571;50.930;6.926;2023-08-06T01:17:46;4.60;;;3.53;;
1164;SDS011;571;50.930;6.926;2023-08-06T01:34:28;5.93;;;4.30;;
1164;SDS011;571;50.930;6.926;2023-08-06T01:37:59;3.80;;;3.50;;
1164;SDS011;571;50.930;6.926;2023-08-06T01:51:10;6.20;;;3.70;;
1164;SDS011;571;50.930;6.926;2023-08-06T01:57:27;8.43;;;3.93;;
1164;SDS011;571;50.930;6.926;2023-08-06T02:07:06;4.13;;;3.47;;
1164;SDS011;571;50.930;6.926;2023-08-06T02:10:08;3.30;;;3.00;;
1164;SDS011;571;50.930;6.926;2023-08-06T02:16:14;3.63;;;3.27;;
1164;SDS011;571;50.930;6.926;2023-08-06T02:41:26;5.03;;;3.90;;
1164;SDS011;571;50.930;6.926;2023-08-06T02:44:26;4.63;;;3.50;;
1164;SDS011;571;50.930;6.926;2023-08-06T02:47:13;4.40;;;3.70;;
1164;SDS011;571;50.930;6.926;2023-08-06T02:54:33;4.27;;;3.30;;
1164;SDS011;571;50.930;6.926;2023-08-06T02:58:19;5.87;;;3.10;;
1164;SDS011;571;50.930;6.926;2023-08-06T03:01:00;3.80;;;3.40;;
1164;SDS011;571;50.930;6.926;2023-08-06T03:04:07;4.03;;;2.77;;
1164;SDS011;571;50.930;6.926;2023-08-06T03:08:05;4.20;;;3.60;;
1164;SDS011;571;50.930;6.926;2023-08-06T03:11:05;3.43;;;3.13;;
1164;SDS011;571;50.930;6.926;2023-08-06T03:14:50;4.50;;;3.07;;
1164;SDS011;571;50.930;6.926;2023-08-06T03:17:49;4.07;;;3.20;;
1164;SDS011;571;50.930;6.926;2023-08-06T03:21:04;3.00;;;2.80;;
1164;SDS011;571;50.930;6.926;2023-08-06T03:24:51;4.03;;;2.93;;
1164;SDS011;571;50.930;6.926;2023-08-06T03:31:01;4.37;;;3.30;;
1164;SDS011;571;50.930;6.926;2023-08-06T03:33:47;3.73;;;2.73;;
1164;SDS011;571;50.930;6.926;2023-08-06T03:38:44;6.37;;;3.73;;
1164;SDS011;571;50.930;6.926;2023-08-06T03:43:25;3.13;;;2.70;;
1164;SDS011;571;50.930;6.926;2023-08-06T03:49:56;3.33;;;3.03;;
1164;SDS011;571;50.930;6.926;2023-08-06T03:53:21;3.83;;;2.87;;
1164;SDS011;571;50.930;6.926;2023-08-06T03:57:02;4.60;;;3.13;;
1164;SDS011;571;50.930;6.926;2023-08-06T04:03:02;4.30;;;3.40;;
1164;SDS011;571;50.930;6.926;2023-08-06T04:05:57;4.20;;;3.50;;
1164;SDS011;571;50.930;6.926;2023-08-06T04:08:47;4.87;;;3.37;;
1164;SDS011;571;50.930;6.926;2023-08-06T04:12:00;3.13;;;2.80;;
1164;SDS011;571;50.930;6.926;2023-08-06T04:18:05;5.00;;;3.80;;
1164;SDS011;571;50.930;6.926;2023-08-06T04:21:03;5.40;;;3.40;;
1164;SDS011;571;50.930;6.926;2023-08-06T04:23:55;3.10;;;2.60;;
1164;SDS011;571;50.930;6.926;2023-08-06T04:27:06;3.23;;;2.53;;
1164;SDS011;571;50.930;6.926;2023-08-06T04:30:34;2.50;;;2.27;;
1164;SDS011;571;50.930;6.926;2023-08-06T04:39:54;5.57;;;3.50;;
1164;SDS011;571;50.930;6.926;2023-08-06T04:43:03;4.90;;;2.80;;
1164;SDS011;571;50.930;6.926;2023-08-06T04:59:52;4.60;;;3.07;;
1164;SDS011;571;50.930;6.926;2023-08-06T05:06:40;4.20;;;3.80;;
1164;SDS011;571;50.930;6.926;2023-08-06T05:09:43;3.50;;;3.20;;
1164;SDS011;571;50.930;6.926;2023-08-06T05:39:24;4.37;;;3.97;;
1164;SDS011;571;50.930;6.926;2023-08-06T05:41:51;3.30;;;2.83;;
1164;SDS011;571;50.930;6.926;2023-08-06T05:44:24;3.03;;;2.70;;
1164;SDS011;571;50.930;6.926;2023-08-06T05:46:57;3.27;;;2.80;;
1164;SDS011;571;50.930;6.926;2023-08-06T05:49:30;4.03;;;3.40;;
1164;SDS011;571;50.930;6.926;2023-08-06T05:52:05;8.40;;;3.90;;
1164;SDS011;571;50.930;6.926;2023-08-06T05:54:34;6.07;;;3.43;;
1164;SDS011;571;50.930;6.926;2023-08-06T05:57:11;4.97;;;3.33;;
1164;SDS011;571;50.930;6.926;2023-08-06T05:59:40;4.03;;;2.90;;
1164;SDS011;571;50.930;6.926;2023-08-06T06:02:10;3.50;;;3.20;;
1164;SDS011;571;50.930;6.926;2023-08-06T06:04:47;3.33;;;2.87;;
1164;SDS011;571;50.930;6.926;2023-08-06T06:07:18;3.77;;;3.13;;
1164;SDS011;571;50.930;6.926;2023-08-06T06:09:47;4.40;;;3.40;;
1164;SDS011;571;50.930;6.926;2023-08-06T06:12:27;3.33;;;3.03;;
1164;SDS011;571;50.930;6.926;2023-08-06T06:14:58;4.20;;;3.07;;
1164;SDS011;571;50.930;6.926;2023-08-06T06:17:30;3.50;;;3.20;;
1164;SDS011;571;50.930;6.926;2023-08-06T06:20:01;4.87;;;3.10;;
1164;SDS011;571;50.930;6.926;2023-08-06T06:22:34;4.67;;;3.60;;
1164;SDS011;571;50.930;6.926;2023-08-06T06:25:03;2.47;;;2.07;;
1164;SDS011;571;50.930;6.926;2023-08-06T06:27:30;2.73;;;2.53;;
1164;SDS011;571;50.930;6.926;2023-08-06T06:29:57;3.10;;;2.73;;
1164;SDS011;571;50.930;6.926;2023-08-06T06:32:26;2.90;;;2.30;;
1164;SDS011;571;50.930;6.926;2023-08-06T06:34:54;1.90;;;1.80;;
1164;SDS011;571;50.930;6.926;2023-08-06T06:37:21;1.90;;;1.70;;
1164;SDS011;571;50.930;6.926;2023-08-06T06:39:47;1.73;;;1.63;;
1164;SDS011;571;50.930;6.926;2023-08-06T06:42:16;3.70;;;1.40;;
1164;SDS011;571;50.930;6.926;2023-08-06T06:44:43;2.10;;;1.47;;
1164;SDS011;571;50.930;6.926;2023-08-06T06:47:10;2.10;;;1.40;;
1164;SDS011;571;50.930;6.926;2023-08-06T06:49:37;1.10;;;1.00;;
1164;SDS011;571;50.930;6.926;2023-08-06T06:52:04;1.60;;;1.30;;
1164;SDS011;571;50.930;6.926;2023-08-06T06:54:34;1.53;;;0.87;;
1164;SDS011;571;50.930;6.926;2023-08-06T06:57:01;1.40;;;1.20;;
1164;SDS011;571;50.930;6.926;2023-08-06T06:59:29;1.30;;;1.00;;
1164;SDS011;571;50.930;6.926;2023-08-06T07:01:56;1.10;;;0.93;;
1164;SDS011;571;50.930;6.926;2023-08-06T07:04:23;1.83;;;1.50;;
1164;SDS011;571;50.930;6.926;2023-08-06T07:06:50;2.60;;;1.57;;
1164;SDS011;571;50.930;6.926;2023-08-06T07:09:19;1.43;;;1.33;;
1164;SDS011;571;50.930;6.926;2023-08-06T07:11:46;1.73;;;1.40;;
1164;SDS011;571;50.930;6.926;2023-08-06T07:14:13;1.10;;;0.90;;
1164;SDS011;571;50.930;6.926;2023-08-06T07:16:41;1.60;;;1.20;;
1164;SDS011;571;50.930;6.926;2023-08-06T07:19:11;1.53;;;0.93;;
1164;SDS011;571;50.930;6.926;2023-08-06T07:21:39;1.60;;;1.50;;
1164;SDS011;571;50.930;6.926;2023-08-06T07:24:06;3.80;;;1.50;;
1164;SDS011;571;50.930;6.926;2023-08-06T07:26:32;2.20;;;1.33;;
1164;SDS011;571;50.930;6.926;2023-08-06T07:29:04;1.40;;;1.30;;
1164;SDS011;571;50.930;6.926;2023-08-06T07:31:31;1.30;;;1.10;;
1164;SDS011;571;50.930;6.926;2023-08-06T07:34:00;1.87;;;1.17;;
1164;SDS011;571;50.930;6.926;2023-08-06T07:36:27;1.30;;;1.20;;
1164;SDS011;571;50.930;6.926;2023-08-06T07:38:54;1.00;;;0.93;;
1164;SDS011;571;50.930;6.926;2023-08-06T07:41:21;6.20;;;1.30;;
1164;SDS011;571;50.930;6.926;2023-08-06T07:43:48;1.83;;;1.30;;
1164;SDS011;571;50.930;6.926;2023-08-06T07:46:16;0.90;;;0.90;;
1164;SDS011;571;50.930;6.926;2023-08-06T07:48:47;1.30;;;1.20;;
1164;SDS011;571;50.930;6.926;2023-08-06T07:51:15;1.30;;;1.20;;
1164;SDS011;571;50.930;6.926;2023-08-06T07:53:42;1.30;;;1.20;;
1164;SDS011;571;50.930;6.926;2023-08-06T07:56:09;3.33;;;1.43;;
1164;SDS011;571;50.930;6.926;2023-08-06T07:58:36;1.70;;;1.27;;
1164;SDS011;571;50.930;6.926;2023-08-06T08:01:03;1.07;;;1.00;;
1164;SDS011;571;50.930;6.926;2023-08-06T08:03:32;1.27;;;1.17;;
1164;SDS011;571;50.930;6.926;2023-08-06T08:05:59;4.27;;;1.60;;
1164;SDS011;571;50.930;6.926;2023-08-06T08:08:27;1.43;;;1.33;;
1164;SDS011;571;50.930;6.926;2023-08-06T08:10:54;1.20;;;1.10;;
1164;SDS011;571;50.930;6.926;2023-08-06T08:13:25;1.23;;;1.13;;
1164;SDS011;571;50.930;6.926;2023-08-06T08:15:56;3.43;;;1.27;;
1164;SDS011;571;50.930;6.926;2023-08-06T08:18:23;1.97;;;1.37;;
1164;SDS011;571;50.930;6.926;2023-08-06T08:20:50;1.20;;;1.07;;
1164;SDS011;571;50.930;6.926;2023-08-06T08:23:17;1.83;;;1.30;;
1164;SDS011;571;50.930;6.926;2023-08-06T08:25:45;2.70;;;1.30;;
1164;SDS011;571;50.930;6.926;2023-08-06T08:28:12;1.73;;;1.10;;
1164;SDS011;571;50.930;6.926;2023-08-06T08:30:40;1.23;;;0.90;;
1164;SDS011;571;50.930;6.926;2023-08-06T08:33:07;5.10;;;1.50;;
1164;SDS011;571;50.930;6.926;2023-08-06T08:35:33;2.10;;;1.10;;
1164;SDS011;571;50.930;6.926;2023-08-06T08:38:02;1.27;;;1.17;;
1164;SDS011;571;50.930;6.926;2023-08-06T08:40:32;1.20;;;1.10;;
1164;SDS011;571;50.930;6.926;2023-08-06T08:43:05;1.13;;;1.03;;
1164;SDS011;571;50.930;6.926;2023-08-06T08:45:35;0.90;;;0.90;;
1164;SDS011;571;50.930;6.926;2023-08-06T08:48:06;1.00;;;0.90;;
1164;SDS011;571;50.930;6.926;2023-08-06T08:50:33;0.80;;;0.80;;
1164;SDS011;571;50.930;6.926;2023-08-06T08:53:00;1.83;;;1.53;;
1164;SDS011;571;50.930;6.926;2023-08-06T08:55:27;1.30;;;1.20;;
1164;SDS011;571;50.930;6.926;2023-08-06T08:57:54;1.30;;;1.10;;
1164;SDS011;571;50.930;6.926;2023-08-06T09:00:23;1.37;;;1.00;;
1164;SDS011;571;50.930;6.926;2023-08-06T09:02:50;3.93;;;1.50;;
1164;SDS011;571;50.930;6.926;2023-08-06T09:05:22;1.47;;;1.37;;
1164;SDS011;571;50.930;6.926;2023-08-06T09:07:49;1.17;;;1.07;;
1164;SDS011;571;50.930;6.926;2023-08-06T09:10:20;1.97;;;0.87;;
1164;SDS011;571;50.930;6.926;2023-08-06T09:12:51;1.10;;;1.00;;
1164;SDS011;571;50.930;6.926;2023-08-06T09:15:24;1.40;;;0.87;;
1164;SDS011;571;50.930;6.926;2023-08-06T09:17:51;1.67;;;1.30;;
1164;SDS011;571;50.930;6.926;2023-08-06T09:20:19;1.20;;;1.10;;
1164;SDS011;571;50.930;6.926;2023-08-06T09:22:46;1.37;;;1.27;;
1164;SDS011;571;50.930;6.926;2023-08-06T09:25:20;1.50;;;1.40;;
1164;SDS011;571;50.930;6.926;2023-08-06T09:27:49;1.90;;;1.70;;
1164;SDS011;571;50.930;6.926;2023-08-06T09:30:30;2.07;;;1.57;;
1164;SDS011;571;50.930;6.926;2023-08-06T09:32:58;1.57;;;1.47;;
1164;SDS011;571;50.930;6.926;2023-08-06T09:35:28;2.53;;;1.97;;
1164;SDS011;571;50.930;6.926;2023-08-06T09:38:04;3.40;;;2.67;;
1164;SDS011;571;50.930;6.926;2023-08-06T09:40:33;2.90;;;2.10;;
1164;SDS011;571;50.930;6.926;2023-08-06T09:43:06;1.77;;;1.67;;
1164;SDS011;571;50.930;6.926;2023-08-06T09:45:37;4.00;;;2.70;;
1164;SDS011;571;50.930;6.926;2023-08-06T09:48:05;2.60;;;2.20;;
1164;SDS011;571;50.930;6.926;2023-08-06T09:50:33;4.30;;;2.40;;
1164;SDS011;571;50.930;6.926;2023-08-06T09:53:02;2.80;;;2.57;;
1164;SDS011;571;50.930;6.926;2023-08-06T09:55:32;3.20;;;3.00;;
1164;SDS011;571;50.930;6.926;2023-08-06T09:58:00;3.27;;;3.07;;
1164;SDS011;571;50.930;6.926;2023-08-06T10:00:27;2.97;;;2.77;;
1164;SDS011;571;50.930;6.926;2023-08-06T10:03:02;2.90;;;2.70;;
1164;SDS011;571;50.930;6.926;2023-08-06T10:05:31;3.37;;;3.07;;
1164;SDS011;571;50.930;6.926;2023-08-06T10:08:00;4.07;;;2.80;;
1164;SDS011;571;50.930;6.926;2023-08-06T10:10:30;1.87;;;1.70;;
1164;SDS011;571;50.930;6.926;2023-08-06T10:12:58;2.53;;;0.90;;
1164;SDS011;571;50.930;6.926;2023-08-06T10:15:26;2.13;;;1.03;;
1164;SDS011;571;50.930;6.926;2023-08-06T10:17:57;4.50;;;1.20;;
1164;SDS011;571;50.930;6.926;2023-08-06T10:20:27;1.50;;;0.80;;
1164;SDS011;571;50.930;6.926;2023-08-06T10:23:02;1.90;;;0.63;;
1164;SDS011;571;50.930;6.926;2023-08-06T10:25:34;1.00;;;0.60;;
1164;SDS011;571;50.930;6.926;2023-08-06T10:28:06;2.20;;;0.50;;
1164;SDS011;571;50.930;6.926;2023-08-06T10:30:41;1.30;;;0.70;;
1164;SDS011;571;50.930;6.926;2023-08-06T10:33:08;1.00;;;0.70;;
1164;SDS011;571;50.930;6.926;2023-08-06T10:35:37;0.83;;;0.60;;
1164;SDS011;571;50.930;6.926;2023-08-06T10:38:09;0.77;;;0.50;;
1164;SDS011;571;50.930;6.926;2023-08-06T10:40:38;0.77;;;0.60;;
1164;SDS011;571;50.930;6.926;2023-08-06T10:46:03;1.50;;;1.00;;
1164;SDS011;571;50.930;6.926;2023-08-06T10:48:46;2.03;;;0.90;;
1164;SDS011;571;50.930;6.926;2023-08-06T10:51:38;2.00;;;1.43;;
1164;SDS011;571;50.930;6.926;2023-08-06T10:54:12;1.30;;;1.20;;
1164;SDS011;571;50.930;6.926;2023-08-06T10:56:41;1.83;;;1.53;;
1164;SDS011;571;50.930;6.926;2023-08-06T10:59:19;2.20;;;1.50;;
1164;SDS011;571;50.930;6.926;2023-08-06T11:01:47;2.30;;;1.53;;
1164;SDS011;571;50.930;6.926;2023-08-06T11:04:22;2.10;;;1.90;;
1164;SDS011;571;50.930;6.926;2023-08-06T11:07:27;2.40;;;1.47;;
1164;SDS011;571;50.930;6.926;2023-08-06T11:10:03;1.93;;;1.43;;
1164;SDS011;571;50.930;6.926;2023-08-06T11:12:36;1.87;;;1.50;;
1164;SDS011;571;50.930;6.926;2023-08-06T11:15:10;2.87;;;1.90;;
1164;SDS011;571;50.930;6.926;2023-08-06T11:17:40;3.30;;;1.40;;
1164;SDS011;571;50.930;6.926;2023-08-06T11:20:08;3.00;;;2.23;;
1164;SDS011;571;50.930;6.926;2023-08-06T11:22:39;2.63;;;1.30;;
1164;SDS011;571;50.930;6.926;2023-08-06T11:28:35;3.17;;;1.80;;
1164;SDS011;571;50.930;6.926;2023-08-06T11:31:24;4.27;;;2.03;;
1164;SDS011;571;50.930;6.926;2023-08-06T11:34:28;3.40;;;2.10;;
1164;SDS011;571;50.930;6.926;2023-08-06T11:37:06;3.20;;;1.93;;
1164;SDS011;571;50.930;6.926;2023-08-06T11:42:11;5.70;;;1.80;;
1164;SDS011;571;50.930;6.926;2023-08-06T11:44:40;4.83;;;1.73;;
1164;SDS011;571;50.930;6.926;2023-08-06T11:47:11;3.37;;;1.70;;
1164;SDS011;571;50.930;6.926;2023-08-06T11:49:40;6.47;;;1.90;;
1164;SDS011;571;50.930;6.926;2023-08-06T11:55:00;3.93;;;1.73;;
1164;SDS011;571;50.930;6.926;2023-08-06T11:57:30;1.73;;;1.50;;
1164;SDS011;571;50.930;6.926;2023-08-06T12:00:01;2.30;;;1.30;;
1164;SDS011;571;50.930;6.926;2023-08-06T12:02:30;1.63;;;1.50;;
1164;SDS011;571;50.930;6.926;2023-08-06T12:05:00;2.67;;;1.83;;
1164;SDS011;571;50.930;6.926;2023-08-06T12:07:29;1.83;;;0.87;;
1164;SDS011;571;50.930;6.926;2023-08-06T12:09:57;2.80;;;1.40;;
1164;SDS011;571;50.930;6.926;2023-08-06T12:12:24;1.33;;;0.93;;
1164;SDS011;571;50.930;6.926;2023-08-06T12:14:52;2.13;;;1.50;;
1164;SDS011;571;50.930;6.926;2023-08-06T12:17:20;1.40;;;0.90;;
1164;SDS011;571;50.930;6.926;2023-08-06T12:19:47;1.90;;;0.80;;
1164;SDS011;571;50.930;6.926;2023-08-06T12:22:14;2.60;;;1.20;;
1164;SDS011;571;50.930;6.926;2023-08-06T12:25:04;1.40;;;1.30;;
1164;SDS011;571;50.930;6.926;2023-08-06T12:27:40;2.97;;;1.20;;
1164;SDS011;571;50.930;6.926;2023-08-06T12:30:17;5.33;;;2.07;;
1164;SDS011;571;50.930;6.926;2023-08-06T12:32:48;3.10;;;1.00;;
1164;SDS011;571;50.930;6.926;2023-08-06T12:35:17;3.37;;;1.67;;
1164;SDS011;571;50.930;6.926;2023-08-06T12:37:47;8.73;;;1.80;;
1164;SDS011;571;50.930;6.926;2023-08-06T12:40:16;6.13;;;2.57;;
1164;SDS011;571;50.930;6.926;2023-08-06T12:42:42;1.90;;;1.40;;
1164;SDS011;571;50.930;6.926;2023-08-06T12:45:21;4.97;;;2.20;;
1164;SDS011;571;50.930;6.926;2023-08-06T12:47:51;1.43;;;1.30;;
1164;SDS011;571;50.930;6.926;2023-08-06T12:53:04;4.93;;;1.53;;
1164;SDS011;571;50.930;6.926;2023-08-06T12:55:51;2.03;;;1.50;;
1164;SDS011;571;50.930;6.926;2023-08-06T12:58:21;4.20;;;1.97;;
1164;SDS011;571;50.930;6.926;2023-08-06T13:00:49;2.70;;;1.90;;
1164;SDS011;571;50.930;6.926;2023-08-06T13:03:16;3.10;;;1.10;;
1164;SDS011;571;50.930;6.926;2023-08-06T13:05:42;3.97;;;1.60;;
1164;SDS011;571;50.930;6.926;2023-08-06T13:08:10;6.00;;;2.23;;
1164;SDS011;571;50.930;6.926;2023-08-06T13:10:36;2.83;;;1.60;;
1164;SDS011;571;50.930;6.926;2023-08-06T13:13:03;8.03;;;2.43;;
1164;SDS011;571;50.930;6.926;2023-08-06T13:15:30;2.57;;;1.63;;
1164;SDS011;571;50.930;6.926;2023-08-06T13:17:58;2.10;;;1.50;;
1164;SDS011;571;50.930;6.926;2023-08-06T13:20:30;1.80;;;1.67;;
1164;SDS011;571;50.930;6.926;2023-08-06T13:22:59;3.63;;;1.57;;
1164;SDS011;571;50.930;6.926;2023-08-06T13:25:26;4.77;;;2.13;;
1164;SDS011;571;50.930;6.926;2023-08-06T13:27:53;2.10;;;1.67;;
1164;SDS011;571;50.930;6.926;2023-08-06T13:30:20;6.27;;;1.70;;
1164;SDS011;571;50.930;6.926;2023-08-06T13:32:48;3.83;;;1.93;;
1164;SDS011;571;50.930;6.926;2023-08-06T13:35:16;5.93;;;2.40;;
1164;SDS011;571;50.930;6.926;2023-08-06T13:37:42;4.60;;;2.37;;
1164;SDS011;571;50.930;6.926;2023-08-06T13:40:09;3.27;;;2.77;;
1164;SDS011;571;50.930;6.926;2023-08-06T13:42:37;4.07;;;2.50;;
1164;SDS011;571;50.930;6.926;2023-08-06T13:45:04;3.60;;;2.40;;
1164;SDS011;571;50.930;6.926;2023-08-06T13:47:31;2.83;;;2.17;;
1164;SDS011;571;50.930;6.926;2023-08-06T13:49:58;3.00;;;2.70;;
1164;SDS011;571;50.930;6.926;2023-08-06T13:52:26;3.03;;;2.60;;
1164;SDS011;571;50.930;6.926;2023-08-06T13:54:53;4.70;;;2.70;;
1164;SDS011;571;50.930;6.926;2023-08-06T13:57:19;5.37;;;3.40;;
1164;SDS011;571;50.930;6.926;2023-08-06T13:59:46;3.60;;;3.30;;
1164;SDS011;571;50.930;6.926;2023-08-06T14:02:13;3.70;;;3.00;;
1164;SDS011;571;50.930;6.926;2023-08-06T14:04:39;4.30;;;3.43;;
1164;SDS011;571;50.930;6.926;2023-08-06T14:07:06;6.20;;;3.40;;
1164;SDS011;571;50.930;6.926;2023-08-06T14:09:34;5.83;;;3.07;;
1164;SDS011;571;50.930;6.926;2023-08-06T14:12:01;5.23;;;2.90;;
1164;SDS011;571;50.930;6.926;2023-08-06T14:14:30;5.13;;;2.40;;
1164;SDS011;571;50.930;6.926;2023-08-06T14:16:57;5.47;;;2.60;;
1164;SDS011;571;50.930;6.926;2023-08-06T14:19:24;4.00;;;2.40;;
1164;SDS011;571;50.930;6.926;2023-08-06T14:21:50;2.83;;;1.90;;
1164;SDS011;571;50.930;6.926;2023-08-06T14:24:17;2.33;;;1.47;;
1164;SDS011;571;50.930;6.926;2023-08-06T14:26:45;4.67;;;2.00;;
1164;SDS011;571;50.930;6.926;2023-08-06T14:29:12;5.77;;;1.43;;
1164;SDS011;571;50.930;6.926;2023-08-06T14:31:39;4.03;;;1.47;;
1164;SDS011;571;50.930;6.926;2023-08-06T14:34:06;1.97;;;1.20;;
1164;SDS011;571;50.930;6.926;2023-08-06T14:36:33;7.27;;;2.00;;
1164;SDS011;571;50.930;6.926;2023-08-06T14:38:59;1.50;;;1.27;;
1164;SDS011;571;50.930;6.926;2023-08-06T14:41:28;1.57;;;1.10;;
1164;SDS011;571;50.930;6.926;2023-08-06T14:44:14;3.60;;;1.20;;
1164;SDS011;571;50.930;6.926;2023-08-06T14:46:44;2.30;;;1.10;;
1164;SDS011;571;50.930;6.926;2023-08-06T14:49:19;4.37;;;1.73;;
1164;SDS011;571;50.930;6.926;2023-08-06T14:52:41;3.27;;;1.70;;
1164;SDS011;571;50.930;6.926;2023-08-06T14:55:01;6.13;;;1.17;;
1164;SDS011;571;50.930;6.926;2023-08-06T14:57:28;11.77;;;1.10;;
1164;SDS011;571;50.930;6.926;2023-08-06T14:59:57;3.60;;;1.30;;
1164;SDS011;571;50.930;6.926;2023-08-06T15:02:25;2.37;;;0.83;;
1164;SDS011;571;50.930;6.926;2023-08-06T15:04:52;2.33;;;1.23;;
1164;SDS011;571;50.930;6.926;2023-08-06T15:14:10;2.27;;;0.93;;
1164;SDS011;571;50.930;6.926;2023-08-06T15:53:38;2.33;;;1.07;;
1164;SDS011;571;50.930;6.926;2023-08-06T15:56:08;3.37;;;0.97;;
1164;SDS011;571;50.930;6.926;2023-08-06T15:58:40;2.57;;;0.67;;
1164;SDS011;571;50.930;6.926;2023-08-06T16:01:25;5.07;;;0.87;;
1164;SDS011;571;50.930;6.926;2023-08-06T16:03:54;7.33;;;2.47;;
1164;SDS011;571;50.930;6.926;2023-08-06T16:06:22;13.83;;;2.40;;
1164;SDS011;571;50.930;6.926;2023-08-06T16:08:50;3.47;;;1.93;;
1164;SDS011;571;50.930;6.926;2023-08-06T16:11:17;1.80;;;1.30;;
1164;SDS011;571;50.930;6.926;2023-08-06T16:17:11;4.73;;;2.53;;
1164;SDS011;571;50.930;6.926;2023-08-06T17:54:41;1.57;;;1.30;;
1164;SDS011;571;50.930;6.926;2023-08-06T17:57:34;3.30;;;2.07;;
1164;SDS011;571;50.930;6.926;2023-08-06T19:09:35;1.97;;;1.00;;
1164;SDS011;571;50.930;6.926;2023-08-06T19:12:14;1.40;;;1.03;;
1164;SDS011;571;50.930;6.926;2023-08-06T19:17:41;2.37;;;1.50;;
1164;SDS011;571;50.930;6.926;2023-08-06T19:20:11;3.87;;;1.10;;
1164;SDS011;571;50.930;6.926;2023-08-06T19:23:00;5.03;;;1.80;;
1164;SDS011;571;50.930;6.926;2023-08-06T19:25:33;1.80;;;1.17;;
1164;SDS011;571;50.930;6.926;2023-08-06T19:28:18;4.17;;;1.20;;
1164;SDS011;571;50.930;6.926;2023-08-06T19:30:59;4.53;;;1.50;;
1164;SDS011;571;50.930;6.926;2023-08-06T19:36:27;4.47;;;2.10;;
1164;SDS011;571;50.930;6.926;2023-08-06T20:59:37;10.73;;;2.83;;
